Time;durP1;ratioP1;P1;durP2;ratioP2;P2;SDS_P1;SDS_P2;PMS_P1;PMS_P2;Temp;Humidity;BMP_temperature;BMP_pressure;BME280_temperature;BME280_humidity;BME280_pressure;Samples;Min_cycle;Max_cycle;Signal;HPM_P1;HPM_P2
2022/01/02 00:02:00;;;;;;;10.40;5.90;;;;;;;8.02;100.00;97429.70;107535;1270;41235;-74
2022/01/02 00:04:37;;;;;;;9.40;6.10;;;;;;;8.01;100.00;97427.63;107533;1270;43790;-74
2022/01/02 00:07:10;;;;;;;10.40;6.20;;;;;;;8.01;100.00;97431.65;107554;1270;40529;-74
2022/01/02 00:09:47;;;;;;;9.30;6.10;;;;;;;8.03;100.00;97431.85;107592;1268;37963;-74
2022/01/02 00:12:24;;;;;;;12.80;6.10;;;;;;;8.04;100.00;97434.73;107603;1268;36612;-74
2022/01/02 00:14:58;;;;;;;9.30;5.40;;;;;;;8.06;100.00;97433.59;107610;1269;47343;-74
2022/01/02 00:17:32;;;;;;;9.90;5.60;;;;;;;8.04;100.00;97432.45;107679;1268;48381;-74
2022/01/02 00:20:11;;;;;;;10.30;5.80;;;;;;;8.03;100.00;97429.96;107419;1269;239257;-74
2022/01/02 00:22:48;;;;;;;9.20;5.70;;;;;;;8.03;100.00;97426.42;107569;1268;41180;-74
2022/01/02 00:25:27;;;;;;;9.90;6.30;;;;;;;8.02;99.99;97428.52;107517;1270;46256;-74
2022/01/02 00:27:59;;;;;;;11.00;6.80;;;;;;;8.00;100.00;97429.30;107551;1271;43841;-74
2022/01/02 00:30:31;;;;;;;11.30;6.60;;;;;;;7.96;100.00;97427.83;107668;1270;30361;-74
2022/01/02 00:33:02;;;;;;;9.90;6.30;;;;;;;7.96;100.00;97424.77;107663;1271;34383;-74
2022/01/02 00:35:34;;;;;;;11.60;7.10;;;;;;;7.95;100.00;97422.48;107590;1271;49016;-74
2022/01/02 00:38:05;;;;;;;12.30;7.30;;;;;;;7.94;100.00;97420.09;107591;1268;38511;-74
2022/01/02 00:40:41;;;;;;;12.20;7.40;;;;;;;7.94;100.00;97418.61;107628;1268;31642;-74
2022/01/02 00:43:21;;;;;;;13.00;6.90;;;;;;;7.96;100.00;97419.58;107598;1268;42795;-74
2022/01/02 00:45:56;;;;;;;8.20;5.70;;;;;;;7.95;100.00;97414.77;107546;1268;36594;-74
2022/01/02 00:48:30;;;;;;;10.60;6.50;;;;;;;7.94;100.00;97414.81;107522;1268;34549;-74
2022/01/02 00:51:06;;;;;;;12.20;6.50;;;;;;;7.95;100.00;97412.70;107617;1271;80622;-74
2022/01/02 00:53:42;;;;;;;11.60;7.40;;;;;;;7.94;100.00;97412.80;107476;1270;43327;-74
2022/01/02 00:56:16;;;;;;;13.70;8.00;;;;;;;7.92;100.00;97416.67;107520;1270;35552;-74
2022/01/02 00:58:52;;;;;;;11.40;7.70;;;;;;;7.91;100.00;97418.09;107607;1268;35470;-74
2022/01/02 01:01:29;;;;;;;13.90;7.50;;;;;;;7.88;100.00;97414.45;107598;1269;59596;-74
2022/01/02 01:04:02;;;;;;;10.90;7.10;;;;;;;7.86;100.00;97411.66;107608;1270;44240;-74
2022/01/02 01:06:36;;;;;;;11.40;6.80;;;;;;;7.84;100.00;97414.48;107392;1271;35061;-74
2022/01/02 01:09:07;;;;;;;11.70;6.90;;;;;;;7.83;100.00;97412.10;107392;1271;41178;-74
2022/01/02 01:11:42;;;;;;;11.00;6.60;;;;;;;7.82;100.00;97409.40;107479;1270;34146;-74
2022/01/02 01:14:14;;;;;;;9.90;6.90;;;;;;;7.80;100.00;97414.85;107436;1270;46322;-74
2022/01/02 01:16:46;;;;;;;10.40;5.90;;;;;;;7.76;100.00;97410.69;107456;1270;33479;-74
2022/01/02 01:19:17;;;;;;;10.10;6.40;;;;;;;7.76;100.00;97407.61;107406;1270;53787;-74
2022/01/02 01:21:48;;;;;;;12.00;6.40;;;;;;;7.74;100.00;97402.73;107399;1270;51191;-74
2022/01/02 01:24:20;;;;;;;11.10;6.40;;;;;;;7.74;100.00;97402.19;107425;1270;53745;-74
2022/01/02 01:26:53;;;;;;;11.20;6.80;;;;;;;7.73;100.00;97401.71;107388;1270;41777;-74
2022/01/02 01:29:24;;;;;;;10.90;6.70;;;;;;;7.72;100.00;97400.20;107447;1271;32603;-74
2022/01/02 01:31:55;;;;;;;9.40;6.00;;;;;;;7.71;100.00;97398.23;107458;1270;35815;-74
2022/01/02 01:34:26;;;;;;;10.10;6.10;;;;;;;7.68;100.00;97392.14;107430;1271;38495;-74
2022/01/02 01:36:58;;;;;;;8.60;4.40;;;;;;;7.67;100.00;97391.33;107424;1271;45209;-74
2022/01/02 01:39:29;;;;;;;7.90;5.10;;;;;;;7.66;100.00;97388.98;107444;1270;33459;-74
2022/01/02 01:42:07;;;;;;;8.10;4.40;;;;;;;7.64;100.00;97383.15;107487;1270;33702;-74
2022/01/02 01:44:51;;;;;;;7.90;4.20;;;;;;;7.64;100.00;97384.79;107429;1271;41120;-74
2022/01/02 01:47:23;;;;;;;7.80;4.40;;;;;;;7.65;100.00;97385.69;107387;1271;37673;-74
2022/01/02 01:49:54;;;;;;;6.90;4.40;;;;;;;7.66;100.00;97381.81;107469;1270;43035;-74
2022/01/02 01:52:25;;;;;;;7.40;4.40;;;;;;;7.70;100.00;97377.20;107492;1271;32371;-74
2022/01/02 01:54:56;;;;;;;4.50;3.70;;;;;;;7.73;100.00;97379.27;107455;1270;39452;-74
2022/01/02 01:57:28;;;;;;;8.30;4.90;;;;;;;7.75;100.00;97376.73;107513;1271;33740;-74
2022/01/02 01:59:59;;;;;;;7.90;4.80;;;;;;;7.73;100.00;97375.52;107448;1271;47128;-74
2022/01/02 02:02:30;;;;;;;6.10;4.00;;;;;;;7.72;100.00;97373.02;107563;1271;32631;-74
2022/01/02 02:05:01;;;;;;;7.40;4.50;;;;;;;7.74;100.00;97365.52;107545;1271;44312;-74
2022/01/02 02:07:39;;;;;;;8.30;5.00;;;;;;;7.77;100.00;97359.96;107550;1271;99689;-74
2022/01/02 02:10:15;;;;;;;7.50;4.40;;;;;;;7.73;100.00;97359.70;107520;1271;48702;-74
2022/01/02 02:12:48;;;;;;;7.80;5.30;;;;;;;7.69;100.00;97356.67;107497;1268;39828;-74
2022/01/02 02:15:20;;;;;;;7.60;5.00;;;;;;;7.65;100.00;97356.15;107512;1271;49737;-74
2022/01/02 02:17:53;;;;;;;6.90;4.10;;;;;;;7.61;100.00;97354.93;107554;1271;36795;-74
2022/01/02 02:20:26;;;;;;;6.60;3.80;;;;;;;7.61;100.00;97348.86;107524;1271;32298;-74
2022/01/02 02:23:00;;;;;;;8.60;4.40;;;;;;;7.61;100.00;97344.95;107426;1268;100580;-74
2022/01/02 02:25:32;;;;;;;8.40;5.40;;;;;;;7.60;100.00;97352.11;107621;1268;58725;-74
2022/01/02 02:28:06;;;;;;;7.30;4.90;;;;;;;7.61;100.00;97351.22;107508;1271;40643;-74
2022/01/02 02:30:39;;;;;;;9.10;5.20;;;;;;;7.63;100.00;97355.59;107518;1271;34509;-74
2022/01/02 02:33:11;;;;;;;6.00;4.00;;;;;;;7.63;100.00;97356.55;107491;1268;38367;-74
2022/01/02 02:35:44;;;;;;;6.80;3.80;;;;;;;7.61;100.00;97352.06;107495;1271;44804;-74
2022/01/02 02:38:17;;;;;;;6.90;4.40;;;;;;;7.56;100.00;97352.56;107463;1270;46847;-74
2022/01/02 02:40:48;;;;;;;6.60;4.70;;;;;;;7.54;100.00;97351.27;107501;1270;58490;-74
2022/01/02 02:43:27;;;;;;;12.90;7.50;;;;;;;7.54;100.00;97340.29;107397;1269;79883;-74
2022/01/02 02:49:01;;;;;;;34.00;18.30;;;;;;;7.49;100.00;97326.91;107421;1270;48373;-74
2022/01/02 02:51:47;;;;;;;30.40;15.40;;;;;;;7.46;100.00;97319.50;107460;1269;95784;-74
2022/01/02 02:54:23;;;;;;;22.10;10.70;;;;;;;7.45;100.00;97320.77;107432;1268;39519;-74
2022/01/02 02:56:56;;;;;;;10.50;5.70;;;;;;;7.43;100.00;97321.59;107556;1268;31566;-74
2022/01/02 02:59:29;;;;;;;7.90;4.50;;;;;;;7.42;100.00;97311.14;107398;1271;95328;-74
2022/01/02 03:02:01;;;;;;;8.50;5.60;;;;;;;7.42;100.00;97310.60;107392;1271;49029;-74
2022/01/02 03:04:32;;;;;;;33.60;18.90;;;;;;;7.41;100.00;97308.22;107499;1271;65946;-74
2022/01/02 03:07:02;;;;;;;17.70;11.50;;;;;;;7.40;100.00;97307.73;107551;1271;34061;-74
2022/01/02 03:09:39;;;;;;;25.70;17.00;;;;;;;7.39;100.00;97303.39;107578;1271;32179;-74
2022/01/02 03:12:11;;;;;;;13.70;7.60;;;;;;;7.38;100.00;97296.20;104258;1271;2287440;-74
2022/01/02 03:14:42;;;;;;;8.20;4.80;;;;;;;7.37;100.00;97295.14;107678;1271;34078;-74
2022/01/02 03:17:13;;;;;;;6.10;4.00;;;;;;;7.36;100.00;97288.79;107499;1269;40968;-74
2022/01/02 03:19:44;;;;;;;5.10;3.30;;;;;;;7.35;100.00;97295.84;107351;1268;43195;-74
2022/01/02 03:22:15;;;;;;;6.20;3.90;;;;;;;7.36;100.00;97290.05;107513;1267;31981;-74
2022/01/02 03:24:49;;;;;;;7.20;3.60;;;;;;;7.35;100.00;97285.72;107271;1271;47191;-74
2022/01/02 03:27:20;;;;;;;5.50;3.80;;;;;;;7.35;100.00;97292.37;107448;1270;41789;-74
2022/01/02 03:29:51;;;;;;;4.40;2.90;;;;;;;7.36;100.00;97293.02;107452;1268;47630;-74
2022/01/02 03:32:22;;;;;;;4.60;2.80;;;;;;;7.36;100.00;97288.21;107402;1271;37122;-74
2022/01/02 03:34:52;;;;;;;5.30;2.80;;;;;;;7.37;100.00;97285.59;107381;1271;44675;-74
2022/01/02 03:37:28;;;;;;;4.30;3.20;;;;;;;7.38;100.00;97284.71;107409;1271;36739;-74
2022/01/02 03:39:58;;;;;;;7.50;3.60;;;;;;;7.37;100.00;97273.45;107406;1270;46466;-74
2022/01/02 03:42:29;;;;;;;8.00;3.90;;;;;;;7.36;100.00;97268.81;107478;1271;45198;-74
2022/01/02 03:45:01;;;;;;;6.30;3.10;;;;;;;7.34;100.00;97260.91;107515;1271;42304;-74
2022/01/02 03:47:32;;;;;;;5.10;3.20;;;;;;;7.32;100.00;97256.02;107566;1268;32750;-74
2022/01/02 03:50:04;;;;;;;5.10;3.30;;;;;;;7.29;100.00;97256.48;107475;1271;38787;-74
2022/01/02 03:52:35;;;;;;;5.70;3.50;;;;;;;7.26;100.00;97255.56;107460;1269;34919;-74
2022/01/02 03:55:08;;;;;;;5.50;3.40;;;;;;;7.25;100.00;97255.74;107473;1269;34801;-75
2022/01/02 03:57:40;;;;;;;5.40;3.10;;;;;;;7.23;100.00;97253.52;107539;1269;30153;-74
2022/01/02 04:00:14;;;;;;;5.50;2.80;;;;;;;7.22;100.00;97250.17;107508;1268;31662;-74
2022/01/02 04:02:45;;;;;;;5.40;3.10;;;;;;;7.22;100.00;97248.86;107549;1271;33626;-74
2022/01/02 04:05:17;;;;;;;7.10;3.80;;;;;;;7.20;100.00;97243.30;107500;1270;35988;-74
2022/01/02 04:07:48;;;;;;;6.00;3.90;;;;;;;7.18;100.00;97233.13;107569;1268;36347;-74
2022/01/02 04:10:20;;;;;;;5.70;3.30;;;;;;;7.15;100.00;97227.39;107676;1268;32657;-74
2022/01/02 04:12:51;;;;;;;6.00;3.60;;;;;;;7.12;100.00;97230.77;107582;1268;34614;-74
2022/01/02 04:15:22;;;;;;;5.70;3.90;;;;;;;7.11;100.00;97227.52;107576;1268;44249;-74
2022/01/02 04:17:53;;;;;;;6.60;3.80;;;;;;;7.10;100.00;97230.38;107608;1268;42954;-74
2022/01/02 04:20:24;;;;;;;6.40;3.50;;;;;;;7.12;100.00;97240.15;107479;1270;31304;-74
2022/01/02 04:22:55;;;;;;;7.70;4.20;;;;;;;7.12;100.00;97238.31;107548;1268;44589;-74
2022/01/02 04:25:25;;;;;;;6.30;4.30;;;;;;;7.12;100.00;97244.52;107608;1268;40143;-74
2022/01/02 04:27:56;;;;;;;6.10;4.20;;;;;;;7.11;100.00;97239.61;107647;1268;34223;-74
2022/01/02 04:30:27;;;;;;;7.50;4.30;;;;;;;7.10;100.00;97232.33;107504;1268;46104;-74
2022/01/02 04:32:58;;;;;;;6.90;4.10;;;;;;;7.08;100.00;97230.88;107478;1268;34985;-74
2022/01/02 04:35:27;;;;;;;;;;;;;;;7.07;100.00;97225.85;107601;1268;41168;-74
2022/01/02 04:37:58;;;;;;;6.10;4.00;;;;;;;7.07;100.00;97237.61;107608;1268;36009;-74
2022/01/02 04:40:29;;;;;;;6.50;3.80;;;;;;;7.08;100.00;97237.36;107565;1268;35933;-74
2022/01/02 04:43:00;;;;;;;5.00;3.10;;;;;;;7.11;100.00;97243.89;107640;1268;35441;-74
2022/01/02 04:45:31;;;;;;;6.00;3.40;;;;;;;7.14;100.00;97239.77;107676;1268;47530;-74
2022/01/02 04:48:01;;;;;;;5.80;3.50;;;;;;;7.18;100.00;97236.44;107651;1268;39672;-74
2022/01/02 04:50:32;;;;;;;6.30;3.10;;;;;;;7.20;100.00;97240.66;107576;1268;35326;-74
2022/01/02 04:53:04;;;;;;;6.10;3.20;;;;;;;7.23;100.00;97237.90;107609;1268;32769;-74
2022/01/02 04:55:35;;;;;;;4.60;3.20;;;;;;;7.25;100.00;97235.66;107609;1268;37303;-75
2022/01/02 04:58:07;;;;;;;5.40;3.30;;;;;;;7.25;100.00;97232.34;107567;1268;33038;-74
2022/01/02 05:00:38;;;;;;;5.50;3.60;;;;;;;7.23;100.00;97232.67;107627;1268;33969;-74
2022/01/02 05:03:08;;;;;;;5.20;3.90;;;;;;;7.22;100.00;97229.45;107577;1268;37320;-74
2022/01/02 05:05:39;;;;;;;5.10;3.50;;;;;;;7.20;100.00;97226.47;107530;1269;36819;-74
2022/01/02 05:08:10;;;;;;;5.70;3.70;;;;;;;7.19;100.00;97219.65;107470;1270;42103;-74
2022/01/02 05:10:41;;;;;;;5.70;3.70;;;;;;;7.19;100.00;97218.61;107623;1268;30435;-74
2022/01/02 05:13:12;;;;;;;5.10;3.60;;;;;;;7.21;100.00;97212.56;107582;1267;42047;-74
2022/01/02 05:15:42;;;;;;;5.70;3.60;;;;;;;7.22;100.00;97208.83;107527;1268;45085;-74
2022/01/02 05:18:13;;;;;;;5.80;3.60;;;;;;;7.20;100.00;97204.42;107579;1268;37647;-74
2022/01/02 05:20:46;;;;;;;5.70;3.10;;;;;;;7.15;100.00;97199.80;107569;1268;35773;-74
2022/01/02 05:23:18;;;;;;;3.30;2.60;;;;;;;7.13;100.00;97197.56;107513;1268;41726;-74
2022/01/02 05:25:50;;;;;;;3.50;2.50;;;;;;;7.13;100.00;97198.26;107514;1268;32061;-74
2022/01/02 05:28:20;;;;;;;4.70;2.90;;;;;;;7.14;100.00;97187.82;107501;1266;44101;-74
2022/01/02 05:30:51;;;;;;;4.80;3.20;;;;;;;7.14;100.00;97181.71;107518;1270;36529;-74
2022/01/02 05:33:22;;;;;;;9.10;3.30;;;;;;;7.11;100.00;97171.33;107501;1270;36424;-74
2022/01/02 05:35:53;;;;;;;3.60;2.50;;;;;;;7.04;100.00;97169.48;107530;1268;33037;-74
2022/01/02 05:38:24;;;;;;;5.20;3.50;;;;;;;6.97;100.00;97164.85;107595;1268;33772;-74
2022/01/02 05:40:55;;;;;;;4.90;3.30;;;;;;;6.91;100.00;97160.23;107615;1268;32375;-74
2022/01/02 05:43:27;;;;;;;5.10;3.00;;;;;;;6.86;100.00;97158.30;107593;1268;39667;-74
2022/01/02 05:46:05;;;;;;;4.20;3.00;;;;;;;6.79;100.00;97159.20;107566;1268;31057;-74
2022/01/02 05:48:37;;;;;;;4.60;3.50;;;;;;;6.74;100.00;97154.52;107577;1268;41836;-75
2022/01/02 05:51:07;;;;;;;5.40;2.90;;;;;;;6.75;100.00;97151.44;107740;1268;34064;-74
2022/01/02 05:53:38;;;;;;;4.50;3.00;;;;;;;6.79;100.00;97148.23;107613;1268;38025;-74
2022/01/02 05:56:09;;;;;;;7.10;3.30;;;;;;;6.78;100.00;97147.29;107492;1268;32481;-74
2022/01/02 05:58:40;;;;;;;6.30;3.50;;;;;;;6.77;100.00;97150.02;107572;1267;33830;-74
2022/01/02 06:01:11;;;;;;;5.60;3.20;;;;;;;6.77;100.00;97143.21;107544;1268;41257;-74
2022/01/02 06:03:42;;;;;;;5.10;3.10;;;;;;;6.77;100.00;97139.27;107514;1268;33518;-74
2022/01/02 06:06:13;;;;;;;4.10;2.70;;;;;;;6.75;100.00;97135.52;107461;1270;39920;-74
2022/01/02 06:08:43;;;;;;;4.00;2.70;;;;;;;6.69;100.00;97133.80;107544;1268;41481;-74
2022/01/02 06:11:14;;;;;;;5.40;3.20;;;;;;;6.68;100.00;97132.00;107539;1267;37628;-74
2022/01/02 06:13:45;;;;;;;5.50;3.60;;;;;;;6.70;100.00;97130.55;107570;1267;35778;-74
2022/01/02 06:16:16;;;;;;;5.90;3.80;;;;;;;6.73;100.00;97124.80;107502;1268;45721;-74
2022/01/02 06:18:47;;;;;;;7.40;3.80;;;;;;;6.77;100.00;97126.70;107513;1268;36128;-74
2022/01/02 06:21:17;;;;;;;5.20;3.20;;;;;;;6.76;100.00;97120.10;107592;1267;39470;-74
2022/01/02 06:23:48;;;;;;;7.40;4.00;;;;;;;6.72;100.00;97112.76;107546;1268;43328;-74
2022/01/02 06:26:19;;;;;;;6.50;4.20;;;;;;;6.66;100.00;97110.85;107556;1267;36141;-74
2022/01/02 06:28:50;;;;;;;5.80;4.10;;;;;;;6.62;100.00;97109.61;107460;1268;32485;-74
2022/01/02 06:31:21;;;;;;;6.30;4.10;;;;;;;6.57;100.00;97107.38;107608;1268;34082;-74
2022/01/02 06:33:51;;;;;;;5.20;3.80;;;;;;;6.54;100.00;97105.45;107573;1268;43299;-75
2022/01/02 06:36:22;;;;;;;6.40;3.60;;;;;;;6.52;100.00;97095.20;107507;1268;34556;-74
2022/01/02 06:38:53;;;;;;;7.50;4.60;;;;;;;6.50;100.00;97088.79;107573;1268;36404;-74
2022/01/02 06:41:24;;;;;;;6.10;4.30;;;;;;;6.50;100.00;97083.41;107580;1265;36295;-74
2022/01/02 06:43:54;;;;;;;7.60;4.20;;;;;;;6.50;100.00;97069.94;107543;1268;43691;-74
2022/01/02 06:46:25;;;;;;;5.50;3.60;;;;;;;6.52;100.00;97061.27;107554;1267;41115;-74
2022/01/02 06:48:56;;;;;;;9.50;4.80;;;;;;;6.52;100.00;97053.58;107593;1268;37950;-74
2022/01/02 06:51:27;;;;;;;6.70;4.50;;;;;;;6.53;100.00;97046.69;107463;1269;48529;-74
2022/01/02 06:53:58;;;;;;;7.80;4.80;;;;;;;6.54;100.00;97041.44;107556;1268;36962;-74
2022/01/02 06:56:28;;;;;;;7.90;4.70;;;;;;;6.56;100.00;97042.35;107565;1267;31433;-74
2022/01/02 06:58:59;;;;;;;6.50;4.20;;;;;;;6.57;100.00;97043.41;107487;1270;38775;-74
2022/01/02 07:01:30;;;;;;;6.60;3.30;;;;;;;6.59;100.00;97046.23;107633;1267;33105;-75
2022/01/02 07:04:01;;;;;;;8.00;4.00;;;;;;;6.65;100.00;97045.07;107576;1268;33655;-74
2022/01/02 07:06:33;;;;;;;5.60;3.90;;;;;;;6.69;100.00;97040.54;107686;1268;32299;-74
2022/01/02 07:09:04;;;;;;;4.20;3.00;;;;;;;6.71;100.00;97045.09;107575;1268;42083;-74
2022/01/02 07:11:35;;;;;;;5.30;3.00;;;;;;;6.73;100.00;97053.13;107659;1268;37016;-74
2022/01/02 07:14:05;;;;;;;5.10;3.20;;;;;;;6.79;100.00;97045.31;107548;1268;39517;-75
2022/01/02 07:16:36;;;;;;;5.20;2.90;;;;;;;6.84;100.00;97048.27;107583;1268;45909;-74
2022/01/02 07:19:07;;;;;;;4.70;2.60;;;;;;;6.87;100.00;97039.51;107574;1268;36135;-74
2022/01/02 07:21:39;;;;;;;5.70;2.60;;;;;;;6.92;100.00;97032.63;107625;1268;41378;-75
2022/01/02 07:24:10;;;;;;;4.70;3.00;;;;;;;6.99;100.00;97029.96;107575;1268;43342;-74
2022/01/02 07:26:41;;;;;;;4.10;2.50;;;;;;;7.01;100.00;97018.66;107616;1267;34441;-74
2022/01/02 07:29:15;;;;;;;6.00;2.60;;;;;;;7.03;100.00;97015.52;107624;1268;40387;-74
2022/01/02 07:31:46;;;;;;;4.20;2.40;;;;;;;7.10;100.00;97015.08;107436;1270;41914;-74
2022/01/02 07:34:17;;;;;;;5.60;2.50;;;;;;;7.22;99.98;97007.83;107530;1268;47520;-74
2022/01/02 07:36:48;;;;;;;3.60;2.30;;;;;;;7.35;99.69;96992.64;107553;1268;44954;-74
2022/01/02 07:39:19;;;;;;;3.70;2.60;;;;;;;7.41;98.98;96990.30;107484;1268;54228;-74
2022/01/02 07:41:50;;;;;;;3.80;2.50;;;;;;;7.57;98.78;96983.04;107475;1268;36286;-74
2022/01/02 07:44:21;;;;;;;4.40;2.80;;;;;;;7.70;97.85;96976.77;107624;1268;32341;-74
2022/01/02 07:46:52;;;;;;;4.20;2.90;;;;;;;7.69;96.48;96971.55;107514;1268;37446;-74
2022/01/02 07:49:23;;;;;;;4.60;2.00;;;;;;;7.73;96.20;96969.09;107627;1268;37679;-74
2022/01/02 07:51:54;;;;;;;4.00;2.30;;;;;;;7.75;95.71;96958.15;107459;1270;33901;-74
2022/01/02 07:54:24;;;;;;;3.50;2.50;;;;;;;7.70;95.48;96951.08;107470;1269;41651;-74
2022/01/02 07:56:55;;;;;;;3.20;1.60;;;;;;;7.61;95.23;96949.69;107501;1268;37097;-74
2022/01/02 07:59:26;;;;;;;4.10;2.40;;;;;;;7.54;94.34;96955.52;107530;1270;29976;-74
2022/01/02 08:01:57;;;;;;;5.60;2.50;;;;;;;7.50;94.28;96943.46;107569;1268;35285;-74
2022/01/02 08:04:29;;;;;;;4.50;2.20;;;;;;;7.51;94.03;96944.20;107596;1268;43302;-74
2022/01/02 08:06:59;;;;;;;4.20;2.40;;;;;;;7.52;93.81;96933.77;107579;1268;40380;-74
2022/01/02 08:09:30;;;;;;;2.50;1.70;;;;;;;7.53;93.60;96941.80;107648;1268;50223;-74
2022/01/02 08:12:01;;;;;;;2.70;1.40;;;;;;;7.56;93.20;96938.23;107576;1268;30774;-74
2022/01/02 08:14:32;;;;;;;2.80;2.10;;;;;;;7.61;92.96;96935.01;107659;1268;37231;-74
2022/01/02 08:17:03;;;;;;;4.20;2.70;;;;;;;7.74;93.24;96939.33;107650;1268;37580;-74
2022/01/02 08:19:34;;;;;;;4.40;2.70;;;;;;;7.89;93.48;96940.77;107650;1267;31245;-74
2022/01/02 08:22:06;;;;;;;4.00;2.80;;;;;;;7.95;92.92;96934.64;107655;1268;33364;-74
2022/01/02 08:24:36;;;;;;;4.70;3.20;;;;;;;8.01;92.89;96933.04;107584;1268;36285;-74
2022/01/02 08:27:10;;;;;;;5.50;3.00;;;;;;;8.07;92.97;96937.96;107584;1268;39588;-74
2022/01/02 08:29:41;;;;;;;4.10;2.80;;;;;;;8.12;92.76;96935.98;107394;1268;41852;-74
2022/01/02 08:32:12;;;;;;;5.10;2.90;;;;;;;8.17;92.44;96926.31;107543;1267;51942;-74
2022/01/02 08:34:43;;;;;;;3.90;2.70;;;;;;;8.20;92.40;96918.13;107649;1268;34601;-74
2022/01/02 08:37:15;;;;;;;4.80;2.90;;;;;;;8.19;92.01;96902.87;107607;1268;32950;-75
2022/01/02 08:39:46;;;;;;;4.30;3.00;;;;;;;8.14;91.58;96893.95;107560;1268;37829;-74
2022/01/02 08:42:18;;;;;;;3.30;2.50;;;;;;;8.07;91.46;96880.77;107571;1268;38563;-74
2022/01/02 08:44:49;;;;;;;4.00;2.50;;;;;;;8.03;91.54;96884.60;105795;1268;2387670;-74
2022/01/02 08:47:19;;;;;;;6.00;3.30;;;;;;;7.98;91.39;96880.17;107578;1268;38651;-74
2022/01/02 08:49:50;;;;;;;5.90;2.90;;;;;;;7.97;91.59;96879.95;107589;1268;35529;-74
2022/01/02 08:52:23;;;;;;;5.10;2.80;;;;;;;8.01;91.58;96875.70;107602;1268;41295;-74
2022/01/02 08:54:54;;;;;;;3.50;2.30;;;;;;;8.06;91.26;96881.19;107515;1270;40573;-74
2022/01/02 08:57:25;;;;;;;3.60;2.50;;;;;;;8.13;90.77;96874.61;107602;1268;42194;-75
2022/01/02 08:59:56;;;;;;;4.10;3.00;;;;;;;8.17;90.41;96855.32;107504;1268;44101;-75
2022/01/02 09:02:26;;;;;;;5.80;3.20;;;;;;;8.19;90.21;96862.20;107565;1268;34918;-74
2022/01/02 09:04:57;;;;;;;4.90;3.10;;;;;;;8.22;90.17;96862.30;107469;1268;41131;-74
2022/01/02 09:07:28;;;;;;;5.80;2.80;;;;;;;8.23;90.19;96855.92;107376;1270;42218;-74
2022/01/02 09:10:00;;;;;;;6.60;3.50;;;;;;;8.24;90.18;96860.48;107368;1270;51693;-74
2022/01/02 09:12:31;;;;;;;5.30;2.80;;;;;;;8.25;90.23;96852.17;107572;1270;31379;-74
2022/01/02 09:15:03;;;;;;;3.60;2.50;;;;;;;8.25;89.73;96848.74;107467;1270;34439;-74
2022/01/02 09:17:34;;;;;;;4.10;2.70;;;;;;;8.29;89.22;96849.13;107505;1270;42692;-74
2022/01/02 09:20:06;;;;;;;5.20;2.60;;;;;;;8.35;89.37;96837.46;107480;1270;45464;-74
2022/01/02 09:22:37;;;;;;;4.00;3.10;;;;;;;8.37;89.21;96830.23;107391;1270;38337;-75
2022/01/02 09:25:11;;;;;;;4.50;2.90;;;;;;;8.40;89.18;96825.86;107479;1270;33099;-75
2022/01/02 09:27:42;;;;;;;3.90;2.90;;;;;;;8.40;88.66;96815.19;107435;1270;39731;-76
2022/01/02 09:30:14;;;;;;;4.40;2.90;;;;;;;8.47;88.76;96809.98;107410;1270;40410;-74
2022/01/02 09:32:45;;;;;;;4.50;2.70;;;;;;;8.66;87.93;96807.71;107372;1270;38055;-74
2022/01/02 09:35:17;;;;;;;4.10;2.70;;;;;;;8.82;87.42;96796.85;107410;1270;41766;-74
2022/01/02 09:37:48;;;;;;;5.80;2.60;;;;;;;8.90;86.76;96795.13;107410;1270;41008;-74
2022/01/02 09:40:20;;;;;;;3.00;2.30;;;;;;;8.96;86.56;96797.45;107422;1270;77065;-74
2022/01/02 09:42:50;;;;;;;5.60;3.50;;;;;;;9.07;86.27;96791.27;105744;1270;2228986;-74
2022/01/02 09:45:21;;;;;;;6.60;3.30;;;;;;;9.23;85.72;96790.55;107371;1270;66795;-75
2022/01/02 09:47:53;;;;;;;4.40;2.50;;;;;;;9.38;84.83;96783.61;107430;1270;46033;-74
2022/01/02 09:50:24;;;;;;;4.70;2.90;;;;;;;9.50;84.13;96771.32;107455;1269;33135;-74
2022/01/02 09:52:55;;;;;;;4.50;2.90;;;;;;;9.62;84.08;96771.41;107423;1270;31265;-74
2022/01/02 09:55:26;;;;;;;4.60;2.80;;;;;;;9.76;83.80;96778.31;107315;1270;46983;-74
2022/01/02 09:57:59;;;;;;;4.80;2.10;;;;;;;9.95;83.90;96773.19;107467;1270;30969;-74
2022/01/02 10:00:30;;;;;;;2.50;2.00;;;;;;;10.10;83.02;96769.11;107493;1270;37290;-74
2022/01/02 10:03:04;;;;;;;2.80;1.80;;;;;;;10.20;82.27;96758.64;107442;1270;41441;-74
2022/01/02 10:05:53;;;;;;;5.50;2.00;;;;;;;10.22;81.91;96761.08;107617;1270;48392;-74
2022/01/02 10:08:27;;;;;;;3.40;1.80;;;;;;;10.16;81.83;96761.20;107504;1268;36244;-74
2022/01/02 10:11:06;;;;;;;3.60;2.00;;;;;;;10.15;81.91;96755.64;107539;1270;43723;-74
2022/01/02 10:13:48;;;;;;;4.40;2.40;;;;;;;10.27;81.94;96749.77;107515;1270;44109;-74
2022/01/02 10:16:25;;;;;;;3.10;2.00;;;;;;;10.41;81.55;96738.80;107453;1270;37993;-74
2022/01/02 10:18:58;;;;;;;3.80;2.10;;;;;;;10.50;80.77;96734.34;107575;1270;29501;-74
2022/01/02 10:21:37;;;;;;;3.20;1.90;;;;;;;10.59;80.43;96728.19;107509;1270;43693;-74
2022/01/02 10:24:16;;;;;;;4.30;2.00;;;;;;;10.70;79.25;96719.91;107479;1270;51925;-74
2022/01/02 10:27:08;;;;;;;4.70;2.00;;;;;;;10.80;79.30;96722.00;107520;1268;34214;-74
2022/01/02 10:29:48;;;;;;;3.50;1.90;;;;;;;10.89;78.31;96725.77;107554;1270;33407;-74
2022/01/02 10:32:34;;;;;;;4.10;2.70;;;;;;;10.97;78.58;96719.69;107506;1268;42498;-74
2022/01/02 10:35:14;;;;;;;2.80;1.60;;;;;;;11.07;77.93;96717.45;107563;1268;37557;-74
2022/01/02 10:37:46;;;;;;;;;;;;;;;11.05;76.86;96714.17;107601;1268;34158;-74
2022/01/02 10:40:34;;;;;;;2.80;1.60;;;;;;;11.09;77.41;96710.05;107528;1269;44937;-74
2022/01/02 10:43:07;;;;;;;3.50;1.70;;;;;;;11.15;77.10;96711.71;107521;1268;43911;-74
2022/01/02 10:45:47;;;;;;;2.20;1.80;;;;;;;11.20;76.70;96710.43;107425;1270;46011;-75
2022/01/02 10:48:30;;;;;;;2.70;1.20;;;;;;;11.22;76.56;96701.17;107566;1268;34454;-74
2022/01/02 10:51:04;;;;;;;2.20;1.50;;;;;;;11.24;76.09;96691.23;107521;1270;35902;-74
2022/01/02 10:53:36;;;;;;;4.00;2.00;;;;;;;11.22;76.37;96700.59;107547;1268;41739;-74
2022/01/02 10:56:08;;;;;;;2.80;1.70;;;;;;;11.18;75.94;96701.85;107528;1269;31619;-74
2022/01/02 10:58:41;;;;;;;1.80;1.40;;;;;;;11.09;75.38;96703.35;107512;1268;41605;-74
2022/01/02 11:01:12;;;;;;;3.10;1.50;;;;;;;11.00;75.43;96697.39;107517;1270;39323;-74
2022/01/02 11:03:45;;;;;;;2.20;1.30;;;;;;;10.91;75.34;96690.73;107522;1269;40826;-74
2022/01/02 11:06:25;;;;;;;4.20;2.10;;;;;;;10.91;74.96;96687.70;107348;1270;41993;-74
2022/01/02 11:08:59;;;;;;;2.20;1.30;;;;;;;10.92;75.38;96692.05;107457;1270;40588;-74
2022/01/02 11:11:31;;;;;;;2.60;1.50;;;;;;;10.95;75.52;96691.91;107482;1270;43726;-74
2022/01/02 11:14:02;;;;;;;3.70;1.40;;;;;;;11.01;75.28;96683.86;107383;1270;50827;-74
2022/01/02 11:16:34;;;;;;;4.10;1.80;;;;;;;11.04;75.04;96675.23;107536;1270;30912;-74
2022/01/02 11:19:06;;;;;;;3.10;1.60;;;;;;;11.07;74.72;96672.81;107455;1270;42376;-74
2022/01/02 11:21:39;;;;;;;2.00;1.40;;;;;;;11.09;74.88;96674.23;107469;1270;31604;-75
2022/01/02 11:24:19;;;;;;;2.40;1.20;;;;;;;11.07;74.03;96671.06;107463;1270;41159;-74
2022/01/02 11:26:58;;;;;;;2.30;1.50;;;;;;;11.00;73.86;96662.23;107307;1270;49039;-74
2022/01/02 11:29:31;;;;;;;2.90;1.70;;;;;;;10.94;73.67;96662.27;107496;1270;38466;-74
2022/01/02 11:32:22;;;;;;;3.00;1.20;;;;;;;10.88;74.07;96662.80;107503;1270;41555;-74
2022/01/02 11:34:56;;;;;;;0.90;0.70;;;;;;;10.82;73.63;96654.78;107482;1270;35920;-74
2022/01/02 11:37:28;;;;;;;2.70;1.40;;;;;;;10.79;73.04;96648.61;107600;1270;40069;-73
2022/01/02 11:40:02;;;;;;;1.80;1.10;;;;;;;10.77;73.54;96646.61;107452;1270;31842;-74
2022/01/02 11:42:48;;;;;;;1.30;0.90;;;;;;;10.77;74.01;96648.89;107458;1270;35926;-74
2022/01/02 11:45:44;;;;;;;1.30;1.20;;;;;;;10.75;74.17;96646.64;107465;1270;36426;-74
2022/01/02 11:48:32;;;;;;;1.20;1.00;;;;;;;10.71;74.14;96639.30;107360;1270;40799;-74
2022/01/02 11:51:03;;;;;;;3.40;1.60;;;;;;;10.69;74.72;96629.75;107555;1270;34804;-74
2022/01/02 11:53:35;;;;;;;3.90;1.60;;;;;;;10.69;74.73;96626.51;107440;1270;46317;-74
2022/01/02 11:56:27;;;;;;;1.90;1.30;;;;;;;10.69;74.81;96626.14;107416;1270;56532;-75